createdAt,value
2022-10-20T00:02:22.708Z,97772.16
2022-10-20T00:04:51.421Z,97775.81
2022-10-20T00:07:20.006Z,97778.59
2022-10-20T00:09:49.866Z,97777.78
2022-10-20T00:12:18.483Z,97778.75
2022-10-20T00:14:48.117Z,97774.41
2022-10-20T00:17:16.611Z,97767.44
2022-10-20T00:19:48.743Z,97769.41
2022-10-20T00:22:17.626Z,97770.25
2022-10-20T00:24:46.184Z,97767.72
2022-10-20T00:27:16.142Z,97767.03
2022-10-20T00:29:44.742Z,97763.41
2022-10-20T00:32:13.187Z,97753.75
2022-10-20T00:34:41.787Z,97756.72
2022-10-20T00:37:10.420Z,97758.38
2022-10-20T00:39:39.071Z,97763.84
2022-10-20T00:42:07.645Z,97756.84
2022-10-20T00:44:52.703Z,97759.66
2022-10-20T00:47:23.723Z,97760.66
2022-10-20T00:49:52.624Z,97754.50
2022-10-20T00:52:23.553Z,97751.00
2022-10-20T00:54:52.222Z,97756.31
2022-10-20T00:57:20.880Z,97748.50
2022-10-20T00:59:51.040Z,97751.31
2022-10-20T01:02:19.777Z,97748.66
2022-10-20T01:04:48.575Z,97746.97
2022-10-20T01:07:17.208Z,97752.28
2022-10-20T01:09:45.875Z,97752.44
2022-10-20T01:12:27.364Z,97755.09
2022-10-20T01:15:04.757Z,97762.22
2022-10-20T01:17:42.178Z,97756.34
2022-10-20T01:20:55.989Z,97752.03
2022-10-20T01:23:59.077Z,97748.69
2022-10-20T01:26:50.946Z,97739.03
2022-10-20T01:29:25.550Z,97744.34
2022-10-20T01:32:01.579Z,97734.72
2022-10-20T01:34:32.948Z,97730.38
2022-10-20T01:37:04.894Z,97726.91
2022-10-20T01:39:37.575Z,97728.72
2022-10-20T01:42:08.993Z,97731.53
2022-10-20T01:44:39.538Z,97726.34
2022-10-20T01:47:09.377Z,97725.38
2022-10-20T01:49:38.375Z,97710.56
2022-10-20T01:52:06.930Z,97706.38
2022-10-20T01:54:35.609Z,97706.38
2022-10-20T01:57:19.666Z,97699.41
2022-10-20T01:59:59.653Z,97698.56
2022-10-20T02:02:40.301Z,97698.72
2022-10-20T02:05:19.318Z,97697.88
2022-10-20T02:07:47.870Z,97684.75
2022-10-20T02:10:20.637Z,97696.22
2022-10-20T02:12:51.859Z,97684.91
2022-10-20T02:15:25.536Z,97684.22
2022-10-20T02:17:58.344Z,97673.59
2022-10-20T02:20:27.660Z,97684.22
2022-10-20T02:22:57.237Z,97688.84
2022-10-20T02:25:26.141Z,97694.16
2022-10-20T02:27:55.997Z,97701.28
2022-10-20T02:30:26.266Z,97697.78
2022-10-20T02:32:54.898Z,97689.94
2022-10-20T02:35:24.962Z,97691.75
2022-10-20T02:37:53.556Z,97680.28
2022-10-20T02:40:22.675Z,97682.13
2022-10-20T02:42:51.383Z,97682.13
2022-10-20T02:45:20.103Z,97684.94
2022-10-20T02:47:50.251Z,97681.47
2022-10-20T02:50:18.932Z,97683.56
2022-10-20T02:52:47.672Z,97679.25
2022-10-20T02:57:45.146Z,97668.63
2022-10-20T03:00:15.232Z,97674.22
2022-10-20T03:02:43.818Z,97670.72
2022-10-20T03:05:13.688Z,97676.88
2022-10-20T03:07:42.370Z,97677.03
2022-10-20T03:10:11.186Z,97679.69
2022-10-20T03:12:39.824Z,97678.97
2022-10-20T03:15:08.944Z,97672.00
2022-10-20T03:17:37.871Z,97673.00
2022-10-20T03:20:07.950Z,97674.13
2022-10-20T03:22:37.969Z,97671.31
2022-10-20T03:25:07.137Z,97672.28
2022-10-20T03:27:35.935Z,97675.09
2022-10-20T03:30:05.184Z,97670.78
2022-10-20T03:32:33.877Z,97661.97
2022-10-20T03:35:02.681Z,97666.59
2022-10-20T03:37:31.158Z,97670.06
2022-10-20T03:40:00.944Z,97669.25
2022-10-20T03:42:29.452Z,97671.22
2022-10-20T03:44:58.037Z,97660.75
2022-10-20T03:47:26.471Z,97659.91
2022-10-20T03:49:55.097Z,97648.44
2022-10-20T03:52:23.844Z,97652.09
2022-10-20T03:54:52.558Z,97647.75
2022-10-20T03:57:22.696Z,97661.88
2022-10-20T03:59:51.684Z,97662.84
2022-10-20T04:02:27.566Z,97662.16
2022-10-20T04:04:56.328Z,97665.66
2022-10-20T04:07:25.028Z,97667.47
2022-10-20T04:09:56.190Z,97661.47
2022-10-20T04:12:27.246Z,97662.44
2022-10-20T04:14:56.181Z,97677.53
2022-10-20T04:17:24.910Z,97669.72
2022-10-20T04:19:53.621Z,97666.06
2022-10-20T04:22:22.371Z,97667.06
2022-10-20T04:24:51.146Z,97676.00
2022-10-20T04:27:19.721Z,97673.47
2022-10-20T04:29:49.933Z,97670.00
2022-10-20T04:32:18.715Z,97669.16
2022-10-20T04:34:47.664Z,97657.72
2022-10-20T04:37:16.249Z,97655.22
2022-10-20T04:39:44.883Z,97654.22
2022-10-20T04:42:13.416Z,97649.22
2022-10-20T04:44:43.504Z,97650.88
2022-10-20T04:47:13.543Z,97644.88
2022-10-20T04:49:42.388Z,97647.53
2022-10-20T04:55:08.640Z,97640.69
2022-10-20T04:57:37.420Z,97638.06
2022-10-20T05:00:07.329Z,97634.41
2022-10-20T05:02:37.650Z,97641.69
2022-10-20T05:05:07.274Z,97626.75
2022-10-20T05:07:36.111Z,97629.41
2022-10-20T05:10:05.868Z,97634.03
2022-10-20T05:12:34.851Z,97628.72
2022-10-20T05:15:03.661Z,97626.22
2022-10-20T05:17:32.460Z,97635.97
2022-10-20T05:20:02.571Z,97635.13
2022-10-20T05:22:32.015Z,97631.66
2022-10-20T05:25:12.740Z,97620.34
2022-10-20T05:27:49.279Z,97624.69
2022-10-20T05:30:17.891Z,97628.16
2022-10-20T05:32:47.226Z,97625.66
2022-10-20T05:35:17.505Z,97623.16
2022-10-20T05:37:46.154Z,97623.28
2022-10-20T05:40:14.814Z,97617.00
2022-10-20T05:42:43.530Z,97623.28
2022-10-20T05:45:12.472Z,97624.41
2022-10-20T05:47:42.669Z,97614.66
2022-10-20T05:50:11.544Z,97604.03
2022-10-20T05:52:41.197Z,97605.84
2022-10-20T05:55:10.860Z,97613.94
2022-10-20T05:57:39.421Z,97613.94
2022-10-20T06:00:09.152Z,97609.63
2022-10-20T06:02:40.144Z,97608.78
2022-10-20T06:05:08.728Z,97603.63
2022-10-20T06:07:37.281Z,97608.94
2022-10-20T06:10:07.654Z,97593.03
2022-10-20T06:12:36.967Z,97596.66
2022-10-20T06:15:06.405Z,97593.03
2022-10-20T06:17:34.908Z,97587.88
2022-10-20T06:20:03.339Z,97586.06
2022-10-20T06:22:31.662Z,97594.84
2022-10-20T06:25:00.126Z,97600.28
2022-10-20T06:27:29.877Z,97601.13
2022-10-20T06:29:58.315Z,97614.53
2022-10-20T06:32:26.706Z,97616.50
2022-10-20T06:34:55.351Z,97617.19
2022-10-20T06:37:23.869Z,97615.50
2022-10-20T06:39:52.437Z,97602.25
2022-10-20T06:42:21.202Z,97600.59
2022-10-20T06:44:51.109Z,97594.44
2022-10-20T06:47:19.494Z,97588.31
2022-10-20T06:49:49.588Z,97587.47
2022-10-20T06:52:18.076Z,97589.16
2022-10-20T06:54:46.573Z,97585.78
2022-10-20T06:57:15.227Z,97593.75
2022-10-20T06:59:43.784Z,97614.81
2022-10-20T07:02:13.582Z,97605.88
2022-10-20T07:04:42.120Z,97610.34
2022-10-20T07:07:10.551Z,97609.38
2022-10-20T07:09:39.132Z,97610.22
2022-10-20T07:12:07.539Z,97604.91
2022-10-20T07:14:37.299Z,97609.22
2022-10-20T07:17:05.831Z,97607.41
2022-10-20T07:19:35.647Z,97618.84
2022-10-20T07:22:04.026Z,97616.19
2022-10-20T07:24:32.504Z,97617.19
2022-10-20T07:27:00.958Z,97624.84
2022-10-20T07:29:29.430Z,97623.31
2022-10-20T07:31:59.979Z,97624.16
2022-10-20T07:34:30.576Z,97627.63
2022-10-20T07:37:00.651Z,97623.19
2022-10-20T07:39:29.311Z,97607.28
2022-10-20T07:41:58.193Z,97604.63
2022-10-20T07:44:26.562Z,97596.66
2022-10-20T07:46:55.078Z,97601.81
2022-10-20T07:49:43.959Z,97589.41
2022-10-20T07:52:16.674Z,97596.38
2022-10-20T07:54:45.853Z,97591.06
2022-10-20T07:57:14.353Z,97588.28
2022-10-20T07:59:43.078Z,97594.41
2022-10-20T08:02:13.679Z,97594.41
2022-10-20T08:04:44.121Z,97593.28
2022-10-20T08:07:13.986Z,97591.47
2022-10-20T08:09:42.805Z,97593.97
2022-10-20T08:12:11.361Z,97580.03
2022-10-20T08:14:40.101Z,97588.81
2022-10-20T08:17:11.534Z,97582.69
2022-10-20T08:19:40.074Z,97575.41
2022-10-20T08:22:08.784Z,97570.94
2022-10-20T08:24:38.912Z,97568.31
2022-10-20T08:27:07.987Z,97567.31
2022-10-20T08:29:37.404Z,97576.94
2022-10-20T08:32:06.046Z,97575.13
2022-10-20T08:35:20.145Z,97573.31
2022-10-20T08:38:14.002Z,97559.06
2022-10-20T08:41:02.484Z,97556.13
2022-10-20T08:44:23.264Z,97548.72
2022-10-20T08:47:19.442Z,97543.25
2022-10-20T08:49:47.962Z,97535.16
2022-10-20T08:52:16.662Z,97528.19
2022-10-20T08:54:48.384Z,97542.97
2022-10-20T08:57:26.348Z,97542.81
2022-10-20T08:59:56.380Z,97551.63
2022-10-20T09:02:24.839Z,97553.28
2022-10-20T09:04:56.176Z,97552.44
2022-10-20T09:07:28.767Z,97548.97
2022-10-20T09:10:05.730Z,97545.47
2022-10-20T09:12:35.737Z,97544.19
2022-10-20T09:15:04.575Z,97542.78
2022-10-20T09:17:33.310Z,97541.78
2022-10-20T09:20:02.727Z,97530.88
2022-10-20T09:22:35.711Z,97531.41
2022-10-20T09:25:05.666Z,97531.28
2022-10-20T09:27:39.775Z,97512.69
2022-10-20T09:30:17.620Z,97507.25
2022-10-20T09:32:48.067Z,97516.88
2022-10-20T09:35:22.775Z,97524.69
2022-10-20T09:37:58.527Z,97512.09
2022-10-20T09:40:27.836Z,97507.34
2022-10-20T09:43:00.259Z,97508.84
2022-10-20T09:45:30.808Z,97504.84
2022-10-20T09:48:05.602Z,97516.56
2022-10-20T09:50:36.612Z,97520.59
2022-10-20T09:53:07.104Z,97506.34
2022-10-20T09:55:42.085Z,97496.56
2022-10-20T09:58:26.561Z,97506.59
2022-10-20T10:01:00.281Z,97506.44
2022-10-20T10:03:29.045Z,97499.31
2022-10-20T10:05:58.584Z,97503.78
2022-10-20T10:08:29.619Z,97500.00
2022-10-20T10:11:00.362Z,97498.00
2022-10-20T10:13:31.769Z,97494.22
2022-10-20T10:16:06.670Z,97507.19
2022-10-20T10:18:36.411Z,97502.72
2022-10-20T10:21:07.279Z,97501.06
2022-10-20T10:23:40.853Z,97499.09
2022-10-20T10:26:33.915Z,97489.16
2022-10-20T10:29:04.545Z,97479.06
2022-10-20T10:31:34.131Z,97474.75
2022-10-20T10:34:26.028Z,97471.94
2022-10-20T10:36:55.063Z,97468.00
2022-10-20T10:39:23.482Z,97462.69
2022-10-20T10:42:02.689Z,97463.22
2022-10-20T10:44:41.944Z,97459.72
2022-10-20T10:47:34.232Z,97454.94
2022-10-20T10:50:27.937Z,97462.59
2022-10-20T10:53:03.304Z,97459.78
2022-10-20T10:55:54.653Z,97455.16
2022-10-20T10:58:36.169Z,97459.16
2022-10-20T11:01:15.380Z,97461.53
2022-10-20T11:03:59.819Z,97453.56
2022-10-20T11:06:33.183Z,97448.09
2022-10-20T11:09:13.106Z,97452.56
2022-10-20T11:11:47.621Z,97451.03
2022-10-20T11:14:33.788Z,97444.59
2022-10-20T11:17:25.953Z,97437.63
2022-10-20T11:24:01.437Z,97433.81
2022-10-20T11:30:49.068Z,97439.19
2022-10-20T11:40:51.133Z,97437.06
2022-10-20T11:43:25.069Z,97423.63
2022-10-20T11:45:56.180Z,97421.78
2022-10-20T11:48:27.924Z,97425.44
2022-10-20T11:51:11.782Z,97430.75
2022-10-20T11:53:58.666Z,97433.94
2022-10-20T11:56:40.390Z,97425.28
2022-10-20T11:59:21.396Z,97408.19
2022-10-20T12:02:04.625Z,97401.38
2022-10-20T12:05:06.936Z,97400.53
2022-10-20T12:08:17.471Z,97403.88
2022-10-20T12:10:55.726Z,97413.00
2022-10-20T12:13:32.240Z,97399.72
2022-10-20T12:16:00.749Z,97390.75
2022-10-20T12:18:30.472Z,97395.22
2022-10-20T12:21:01.663Z,97389.91
2022-10-20T12:24:05.608Z,97372.31
2022-10-20T12:27:28.674Z,97363.66
2022-10-20T12:30:05.050Z,97361.00
2022-10-20T12:32:55.809Z,97374.97
2022-10-20T12:36:00.439Z,97377.63
2022-10-20T12:38:30.397Z,97374.97
2022-10-20T12:41:02.358Z,97366.16
2022-10-20T12:43:36.838Z,97359.03
2022-10-20T12:46:10.269Z,97360.53
2022-10-20T12:48:44.605Z,97373.66
2022-10-20T12:51:21.223Z,97359.38
2022-10-20T12:53:55.260Z,97354.06
2022-10-20T12:57:14.476Z,97356.56
2022-10-20T12:59:43.043Z,97355.59
2022-10-20T13:02:50.072Z,97356.41
2022-10-20T13:05:45.178Z,97356.41
2022-10-20T13:08:31.726Z,97355.44
2022-10-20T13:11:41.802Z,97353.75
2022-10-20T13:14:35.735Z,97349.97
2022-10-20T13:17:13.115Z,97349.13
2022-10-20T13:19:47.592Z,97344.81
2022-10-20T13:22:34.354Z,97338.50
2022-10-20T13:25:04.976Z,97351.78
2022-10-20T13:27:33.556Z,97358.75
2022-10-20T13:30:02.184Z,97362.09
2022-10-20T13:32:37.965Z,97364.75
2022-10-20T13:35:19.975Z,97364.75
2022-10-20T13:38:08.082Z,97347.97
2022-10-20T13:41:34.349Z,97346.31
2022-10-20T13:44:25.840Z,97349.78
2022-10-20T13:51:06.861Z,97370.22
2022-10-20T13:53:38.794Z,97368.41
2022-10-20T13:56:10.621Z,97372.03
2022-10-20T13:58:38.999Z,97365.91
2022-10-20T14:01:16.723Z,97366.06
2022-10-20T14:03:47.217Z,97364.38
2022-10-20T14:06:34.988Z,97376.84
2022-10-20T14:09:16.835Z,97383.97
2022-10-20T14:11:46.389Z,97391.13
2022-10-20T14:14:16.965Z,97383.31
2022-10-20T14:16:52.002Z,97396.59
2022-10-20T14:19:23.172Z,97396.59
2022-10-20T14:21:56.074Z,97400.22
2022-10-20T14:24:31.166Z,97410.84
2022-10-20T14:27:01.365Z,97416.16
2022-10-20T14:29:31.227Z,97405.53
2022-10-20T14:31:59.998Z,97404.72
2022-10-20T14:34:30.290Z,97403.88
2022-10-20T14:37:00.406Z,97395.91
2022-10-20T14:39:35.969Z,97384.59
2022-10-20T14:42:06.744Z,97378.31
2022-10-20T14:44:36.081Z,97370.34
2022-10-20T14:47:08.018Z,97366.00
2022-10-20T14:49:39.178Z,97363.34
2022-10-20T14:52:22.307Z,97358.03
2022-10-20T14:54:51.847Z,97357.22
2022-10-20T14:57:33.417Z,97367.00
2022-10-20T15:00:04.164Z,97364.34
2022-10-20T15:02:38.482Z,97359.03
2022-10-20T15:05:31.045Z,97358.19
2022-10-20T15:08:09.449Z,97345.91
2022-10-20T15:10:38.929Z,97333.47
2022-10-20T15:13:07.386Z,97324.66
2022-10-20T15:15:39.720Z,97315.19
2022-10-20T15:18:14.817Z,97310.69
2022-10-20T15:20:43.987Z,97301.91
2022-10-20T15:23:15.313Z,97293.94
2022-10-20T15:25:48.392Z,97269.03
2022-10-20T15:28:31.612Z,97264.72
2022-10-20T15:31:00.326Z,97258.41
2022-10-20T15:33:29.073Z,97262.88
2022-10-20T15:36:00.322Z,97255.75
2022-10-20T15:38:30.472Z,97250.44
2022-10-20T15:43:29.383Z,97276.16
2022-10-20T15:45:58.056Z,97277.00
2022-10-20T15:48:26.943Z,97275.34
2022-10-20T15:51:40.040Z,97277.00
2022-10-20T15:54:52.895Z,97266.69
2022-10-20T15:57:52.574Z,97260.41
2022-10-20T16:02:00.019Z,97247.28
2022-10-20T16:04:34.196Z,97245.63
2022-10-20T16:07:40.965Z,97241.13
2022-10-20T16:10:40.416Z,97239.31
2022-10-20T16:13:31.983Z,97236.81
2022-10-20T16:19:31.667Z,97233.47
2022-10-20T16:22:44.255Z,97235.16
2022-10-20T16:25:25.499Z,97235.47
2022-10-20T16:28:00.250Z,97231.16
2022-10-20T16:30:29.288Z,97232.97
2022-10-20T16:32:57.672Z,97226.00
2022-10-20T16:35:26.088Z,97223.34
2022-10-20T16:37:54.426Z,97221.69
2022-10-20T16:40:24.285Z,97219.03
2022-10-20T16:42:53.103Z,97222.66
2022-10-20T16:47:50.134Z,97226.16
2022-10-20T16:50:19.140Z,97235.13
2022-10-20T16:52:47.674Z,97236.94
2022-10-20T16:55:16.215Z,97238.75
2022-10-20T16:57:45.763Z,97246.72
2022-10-20T17:00:28.520Z,97239.59
2022-10-20T17:03:36.521Z,97230.13
2022-10-20T17:06:13.975Z,97229.28
2022-10-20T17:08:48.779Z,97232.94
2022-10-20T17:11:33.436Z,97238.25
2022-10-20T17:18:39.766Z,97225.13
2022-10-20T17:21:04.741Z,97226.13
2022-10-20T17:23:57.931Z,97222.63
2022-10-20T17:26:30.393Z,97222.78
2022-10-20T17:29:00.898Z,97228.94
2022-10-20T17:31:31.790Z,97226.44
2022-10-20T17:34:00.689Z,97235.06
2022-10-20T17:36:29.837Z,97248.50
2022-10-20T17:39:00.296Z,97242.38
2022-10-20T17:41:29.903Z,97242.38
2022-10-20T17:44:00.758Z,97243.34
2022-10-20T17:46:30.802Z,97253.00
2022-10-20T17:49:01.509Z,97260.28
2022-10-20T17:51:33.688Z,97263.78
2022-10-20T17:54:04.539Z,97266.59
2022-10-20T17:56:35.420Z,97275.38
2022-10-20T17:59:06.500Z,97283.50
2022-10-20T18:01:38.334Z,97278.19
2022-10-20T18:04:08.396Z,97272.88
2022-10-20T18:06:38.059Z,97279.03
2022-10-20T18:09:10.906Z,97282.66
2022-10-20T18:11:40.750Z,97274.88
2022-10-20T18:14:09.267Z,97277.50
2022-10-20T18:16:40.467Z,97272.38
2022-10-20T18:19:09.610Z,97264.56
2022-10-20T18:21:38.718Z,97268.03
2022-10-20T18:24:08.739Z,97267.06
2022-10-20T18:26:38.127Z,97260.09
2022-10-20T18:29:08.628Z,97253.09
2022-10-20T18:31:40.044Z,97247.78
2022-10-20T18:34:10.330Z,97231.88
2022-10-20T18:36:42.061Z,97218.75
2022-10-20T18:39:15.036Z,97214.44
2022-10-20T18:41:45.561Z,97222.41
2022-10-20T18:44:15.802Z,97211.78
2022-10-20T18:46:46.284Z,97215.44
2022-10-20T18:49:16.928Z,97217.25
2022-10-20T18:51:46.491Z,97214.59
2022-10-20T18:54:15.455Z,97203.31
2022-10-20T18:56:43.866Z,97205.13
2022-10-20T18:59:16.183Z,97211.25
2022-10-20T19:01:48.144Z,97212.25
2022-10-20T19:04:16.603Z,97221.22
2022-10-20T19:06:46.417Z,97225.69
2022-10-20T19:09:16.919Z,97221.38
2022-10-20T19:11:46.209Z,97223.19
2022-10-20T19:14:15.410Z,97218.88
2022-10-20T19:16:46.243Z,97222.34
2022-10-20T19:19:14.716Z,97222.34
2022-10-20T19:21:43.295Z,97212.72
2022-10-20T19:24:14.814Z,97215.38
2022-10-20T19:26:52.538Z,97202.41
2022-10-20T19:29:31.435Z,97205.91
2022-10-20T19:32:03.049Z,97212.06
2022-10-20T19:34:33.238Z,97205.06
2022-10-20T19:37:02.277Z,97194.44
2022-10-20T19:39:36.890Z,97196.25
2022-10-20T19:42:08.165Z,97203.38
2022-10-20T19:44:37.086Z,97204.22
2022-10-20T19:47:07.973Z,97193.75
2022-10-20T19:49:38.061Z,97188.47
2022-10-20T19:52:07.294Z,97196.41
2022-10-20T19:54:36.141Z,97201.72
2022-10-20T19:57:04.682Z,97218.66
2022-10-20T19:59:33.663Z,97218.66
2022-10-20T20:02:02.108Z,97215.34
2022-10-20T20:04:31.792Z,97219.66
2022-10-20T20:07:02.373Z,97226.94
2022-10-20T20:09:31.007Z,97214.66
2022-10-20T20:12:00.373Z,97226.13
2022-10-20T20:14:29.196Z,97218.16
2022-10-20T20:16:57.666Z,97219.13
2022-10-20T20:19:26.187Z,97226.28
2022-10-20T20:21:55.879Z,97228.09
2022-10-20T20:24:24.363Z,97232.56
2022-10-20T20:26:52.745Z,97241.50
2022-10-20T20:32:48.701Z,97255.63
2022-10-20T20:35:19.097Z,97256.59
2022-10-20T20:37:48.807Z,97267.06
2022-10-20T20:40:18.621Z,97268.22
2022-10-20T20:42:47.515Z,97270.03
2022-10-20T20:45:16.332Z,97280.66
2022-10-20T20:47:46.757Z,97273.66
2022-10-20T20:50:15.606Z,97288.75
2022-10-20T20:52:44.432Z,97307.50
2022-10-20T20:55:14.442Z,97303.84
2022-10-20T20:57:42.976Z,97310.00
2022-10-20T21:00:13.216Z,97305.66
2022-10-20T21:02:45.056Z,97310.16
2022-10-20T21:05:13.614Z,97312.94
2022-10-20T21:07:42.032Z,97312.94
2022-10-20T21:10:10.888Z,97305.00
2022-10-20T21:12:41.032Z,97306.97
2022-10-20T21:15:10.486Z,97313.09
2022-10-20T21:17:38.918Z,97301.66
2022-10-20T21:20:08.392Z,97308.63
2022-10-20T21:22:37.126Z,97312.28
2022-10-20T21:25:06.574Z,97311.44
2022-10-20T21:27:35.395Z,97310.59
2022-10-20T21:30:05.568Z,97316.91
2022-10-20T21:32:34.663Z,97316.06
2022-10-20T21:35:03.643Z,97320.53
2022-10-20T21:37:32.202Z,97312.56
2022-10-20T21:40:00.722Z,97316.06
2022-10-20T21:42:29.154Z,97317.06
2022-10-20T21:45:03.391Z,97320.69
2022-10-20T21:47:34.612Z,97327.81
2022-10-20T21:50:03.087Z,97327.81
2022-10-20T21:52:31.788Z,97326.16
2022-10-20T21:55:00.493Z,97340.25
2022-10-20T21:57:29.358Z,97347.38
2022-10-20T21:59:58.091Z,97342.22
2022-10-20T22:02:26.674Z,97336.91
2022-10-20T22:04:56.990Z,97339.56
2022-10-20T22:07:25.853Z,97327.28
2022-10-20T22:09:55.046Z,97336.25
2022-10-20T22:12:24.055Z,97330.94
2022-10-20T22:14:52.454Z,97326.63
2022-10-20T22:17:21.749Z,97323.97
2022-10-20T22:19:50.918Z,97326.63
2022-10-20T22:22:20.836Z,97317.00
2022-10-20T22:24:49.898Z,97314.34
2022-10-20T22:27:31.343Z,97308.19
2022-10-20T22:30:09.009Z,97282.66
2022-10-20T22:32:37.927Z,97266.75
2022-10-20T22:35:08.608Z,97254.63
2022-10-20T22:37:38.767Z,97282.66
2022-10-20T22:40:09.578Z,97281.81
2022-10-20T22:42:38.498Z,97265.91
2022-10-20T22:45:08.574Z,97258.94
2022-10-20T22:47:37.292Z,97230.75
2022-10-20T22:50:06.671Z,97222.78
2022-10-20T22:52:36.280Z,97221.94
2022-10-20T22:55:07.903Z,97213.16
2022-10-20T22:57:36.818Z,97199.91
2022-10-20T23:00:07.025Z,97191.94
2022-10-20T23:02:36.112Z,97170.72
2022-10-20T23:05:05.479Z,97170.72
2022-10-20T23:07:36.349Z,97179.66
2022-10-20T23:10:07.938Z,97184.97
2022-10-20T23:12:37.073Z,97180.66
2022-10-20T23:15:06.905Z,97171.88
2022-10-20T23:17:36.261Z,97163.91
2022-10-20T23:20:06.633Z,97168.38
2022-10-20T23:22:35.355Z,97171.03
2022-10-20T23:25:03.848Z,97166.72
2022-10-20T23:27:35.740Z,97179.16
2022-10-20T23:30:05.429Z,97185.44
2022-10-20T23:32:33.817Z,97191.59
2022-10-20T23:35:02.362Z,97181.13
2022-10-20T23:37:30.784Z,97160.75
2022-10-20T23:39:59.202Z,97165.06
2022-10-20T23:42:27.610Z,97143.16
2022-10-20T23:44:57.349Z,97153.78
2022-10-20T23:47:25.793Z,97152.94
2022-10-20T23:49:54.170Z,97145.81
2022-10-20T23:52:22.793Z,97144.16
2022-10-20T23:54:51.318Z,97140.66
2022-10-20T23:57:19.639Z,97136.34
2022-10-20T23:59:48.061Z,97149.63
